Time;durP1;ratioP1;P1;durP2;ratioP2;P2;SDS_P1;SDS_P2;PMS_P1;PMS_P2;Temp;Humidity;BMP_temperature;BMP_pressure;BME280_temperature;BME280_humidity;BME280_pressure;Samples;Min_cycle;Max_cycle;Signal;HPM_P1;HPM_P2
2023/03/13 00:00:26;;;;;;;10.63;3.13;;;13.50;56.30;;;;;;5037918;28;20454;-88
2023/03/13 00:02:53;;;;;;;9.80;2.53;;;13.40;56.50;;;;;;5060845;28;20471;-88
2023/03/13 00:05:20;;;;;;;9.67;3.20;;;13.40;56.70;;;;;;5022692;28;20799;-86
2023/03/13 00:07:47;;;;;;;17.37;3.50;;;13.30;56.80;;;;;;5040959;28;20449;-87
2023/03/13 00:10:14;;;;;;;8.27;2.70;;;13.30;56.70;;;;;;5038068;28;20464;-87
2023/03/13 00:12:42;;;;;;;18.50;4.00;;;13.40;56.90;;;;;;5024758;28;20463;-87
2023/03/13 00:15:10;;;;;;;11.00;3.10;;;13.20;57.30;;;;;;5061358;28;20453;-86
2023/03/13 00:17:36;;;;;;;12.83;2.80;;;13.10;57.30;;;;;;5059052;28;20448;-87
2023/03/13 00:20:04;;;;;;;9.93;3.80;;;13.20;56.90;;;;;;5069198;28;20463;-87
2023/03/13 00:22:31;;;;;;;12.37;3.77;;;13.30;57.00;;;;;;5045970;28;20968;-87
2023/03/13 00:24:58;;;;;;;11.00;4.10;;;13.40;56.70;;;;;;5062960;28;20555;-86
2023/03/13 00:27:25;;;;;;;12.60;2.77;;;13.40;56.70;;;;;;5028342;28;21151;-86
2023/03/13 00:29:54;;;;;;;5.17;2.80;;;13.40;56.50;;;;;;5025324;28;20562;-88
2023/03/13 00:32:21;;;;;;;14.40;3.70;;;13.30;56.80;;;;;;5046033;28;20532;-87
2023/03/13 00:34:48;;;;;;;12.03;3.50;;;13.30;56.80;;;;;;5034006;28;21009;-87
2023/03/13 00:37:14;;;;;;;9.43;3.10;;;13.40;56.80;;;;;;5030736;28;20460;-87
2023/03/13 00:39:41;;;;;;;10.33;2.77;;;13.20;56.80;;;;;;5064337;28;20452;-87
2023/03/13 00:42:08;;;;;;;9.60;3.33;;;12.90;57.40;;;;;;5035804;28;20432;-88
2023/03/13 00:44:35;;;;;;;12.93;4.10;;;13.00;57.60;;;;;;5040462;28;20486;-87
2023/03/13 00:47:04;;;;;;;5.80;2.57;;;13.10;57.40;;;;;;5061257;28;20437;-86
2023/03/13 00:49:31;;;;;;;11.23;3.20;;;13.10;57.80;;;;;;5057076;28;20479;-88
2023/03/13 00:51:58;;;;;;;12.47;3.03;;;13.30;56.80;;;;;;5046982;28;20469;-88
2023/03/13 00:54:25;;;;;;;11.00;3.40;;;13.30;56.60;;;;;;5036509;28;20453;-85
2023/03/13 00:56:52;;;;;;;10.83;2.97;;;13.40;56.60;;;;;;5041256;28;20801;-88
2023/03/13 00:59:19;;;;;;;7.40;3.17;;;13.40;56.30;;;;;;5024830;28;20480;-87
2023/03/13 01:01:46;;;;;;;14.30;4.63;;;13.30;56.50;;;;;;5030991;28;20440;-87
2023/03/13 01:04:15;;;;;;;13.53;4.00;;;13.40;56.20;;;;;;5049498;28;20477;-87
2023/03/13 01:06:42;;;;;;;5.53;2.37;;;13.40;56.30;;;;;;5026007;28;20455;-88
2023/03/13 01:09:12;;;;;;;8.90;2.83;;;13.40;56.20;;;;;;5038772;28;20669;-87
2023/03/13 01:11:41;;;;;;;8.17;2.80;;;13.40;56.30;;;;;;5046087;28;20461;-87
2023/03/13 01:14:10;;;;;;;7.90;3.00;;;13.60;55.80;;;;;;5035414;28;20929;-87
2023/03/13 01:16:38;;;;;;;9.30;2.57;;;13.50;55.60;;;;;;5064040;28;20540;-88
2023/03/13 01:19:07;;;;;;;14.03;3.50;;;13.40;55.90;;;;;;5027678;28;20456;-84
2023/03/13 01:21:36;;;;;;;7.83;2.10;;;13.40;55.90;;;;;;5039012;28;20440;-86
2023/03/13 01:24:04;;;;;;;11.50;3.63;;;13.40;55.60;;;;;;5026430;28;20472;-88
2023/03/13 01:26:31;;;;;;;11.20;2.87;;;13.10;56.40;;;;;;5032842;28;20455;-88
2023/03/13 01:28:59;;;;;;;6.47;2.10;;;13.10;56.50;;;;;;5046850;28;20538;-89
2023/03/13 01:31:29;;;;;;;11.70;2.80;;;13.00;56.70;;;;;;5039927;28;20826;-88
2023/03/13 01:33:58;;;;;;;6.13;2.63;;;13.10;56.70;;;;;;5043145;28;20522;-87
2023/03/13 01:36:26;;;;;;;7.03;2.37;;;12.90;56.70;;;;;;5026435;28;20444;-87
2023/03/13 01:38:56;;;;;;;6.43;2.20;;;13.00;56.80;;;;;;5047183;28;20467;-89
2023/03/13 01:41:24;;;;;;;7.50;2.63;;;13.10;56.50;;;;;;5046371;28;20452;-88
2023/03/13 01:43:52;;;;;;;6.73;2.43;;;13.30;56.10;;;;;;5034139;28;21078;-87
2023/03/13 01:46:21;;;;;;;14.80;3.80;;;13.30;56.40;;;;;;5036745;28;22108;-87
2023/03/13 01:49:05;;;;;;;7.70;2.30;;;13.40;55.70;;;;;;5031060;28;20447;-86
2023/03/13 01:51:40;;;;;;;7.63;3.20;;;13.60;55.40;;;;;;5063865;28;20908;-87
2023/03/13 01:54:13;;;;;;;7.07;3.33;;;13.50;55.60;;;;;;5042271;28;20467;-86
2023/03/13 01:56:43;;;;;;;8.67;2.67;;;13.40;55.80;;;;;;5035899;28;20497;-87
2023/03/13 01:59:13;;;;;;;17.50;3.03;;;13.40;55.90;;;;;;5050056;28;20451;-88
2023/03/13 02:01:43;;;;;;;11.87;2.43;;;13.20;56.00;;;;;;5063393;28;20452;-87
2023/03/13 02:04:10;;;;;;;9.23;2.23;;;13.20;56.50;;;;;;5031107;28;20471;-87
2023/03/13 02:06:41;;;;;;;5.60;2.70;;;13.10;56.60;;;;;;5065289;28;20470;-87
2023/03/13 02:09:14;;;;;;;9.77;2.67;;;13.10;56.50;;;;;;5060865;28;20943;-88
2023/03/13 02:11:48;;;;;;;9.70;2.53;;;13.30;56.30;;;;;;5062042;28;20475;-87
2023/03/13 02:14:15;;;;;;;8.37;1.93;;;13.30;56.20;;;;;;5026077;28;20822;-87
2023/03/13 02:16:46;;;;;;;6.37;2.30;;;13.20;56.30;;;;;;5030678;28;20440;-87
2023/03/13 02:19:18;;;;;;;8.43;2.77;;;13.10;56.50;;;;;;5028609;28;20523;-86
2023/03/13 02:21:50;;;;;;;7.00;2.50;;;13.30;56.30;;;;;;5033930;28;20444;-89
2023/03/13 02:24:27;;;;;;;5.60;2.50;;;13.30;56.10;;;;;;5034848;28;20467;-87
2023/03/13 02:26:56;;;;;;;5.87;2.00;;;13.40;55.80;;;;;;5032247;28;20478;-88
2023/03/13 02:29:24;;;;;;;7.07;2.60;;;13.50;55.70;;;;;;5039443;28;20452;-87
2023/03/13 02:31:53;;;;;;;6.43;2.83;;;13.40;55.50;;;;;;5049847;28;20556;-88
2023/03/13 02:34:24;;;;;;;8.30;2.40;;;13.00;56.40;;;;;;5048126;28;20463;-88
2023/03/13 02:36:52;;;;;;;7.57;3.03;;;13.00;56.60;;;;;;5050415;28;20498;-87
2023/03/13 02:39:21;;;;;;;7.63;3.60;;;13.10;56.40;;;;;;5031212;28;20443;-87
2023/03/13 02:41:50;;;;;;;9.87;2.50;;;13.20;56.20;;;;;;5063108;28;20460;-87
2023/03/13 02:44:18;;;;;;;14.60;3.30;;;13.10;56.50;;;;;;5047206;28;20471;-87
2023/03/13 02:46:46;;;;;;;5.67;2.67;;;13.30;56.10;;;;;;5036806;28;20469;-87
2023/03/13 02:49:23;;;;;;;9.03;2.30;;;13.40;55.50;;;;;;5031202;28;20791;-89
2023/03/13 02:51:51;;;;;;;4.43;2.13;;;13.70;55.40;;;;;;5038602;28;20992;-86
2023/03/13 02:54:20;;;;;;;8.43;2.10;;;13.80;55.10;;;;;;5030835;28;20504;-87
2023/03/13 02:56:51;;;;;;;7.27;2.67;;;13.60;54.90;;;;;;5043516;28;20453;-87
2023/03/13 02:59:19;;;;;;;10.57;3.83;;;13.60;55.30;;;;;;5053603;28;20486;-89
2023/03/13 03:01:51;;;;;;;8.07;2.30;;;13.60;55.50;;;;;;5048774;28;20444;-86
2023/03/13 03:04:20;;;;;;;4.23;2.37;;;13.60;56.20;;;;;;5072947;28;20468;-86
2023/03/13 03:06:50;;;;;;;9.77;3.33;;;13.60;55.80;;;;;;5035651;28;20448;-86
2023/03/13 03:09:19;;;;;;;8.50;2.40;;;13.40;56.90;;;;;;5029649;28;20455;-87
2023/03/13 03:11:46;;;;;;;6.00;2.40;;;13.50;56.90;;;;;;5073143;28;20507;-87
2023/03/13 03:14:16;;;;;;;8.30;2.47;;;13.50;56.80;;;;;;5043680;28;20572;-86
2023/03/13 03:16:46;;;;;;;4.83;2.13;;;13.60;57.20;;;;;;5048027;28;20870;-88
2023/03/13 03:19:13;;;;;;;7.40;2.10;;;13.40;57.50;;;;;;5055831;28;20490;-90
2023/03/13 03:21:41;;;;;;;9.77;2.90;;;13.10;58.80;;;;;;5036665;28;21000;-87
2023/03/13 03:24:08;;;;;;;7.83;2.30;;;12.90;59.00;;;;;;5046325;28;20547;-87
2023/03/13 03:26:36;;;;;;;5.83;2.27;;;13.20;58.90;;;;;;5045470;28;20503;-87
2023/03/13 03:29:09;;;;;;;9.27;2.50;;;13.30;58.70;;;;;;5037369;28;20473;-86
2023/03/13 03:31:37;;;;;;;6.17;1.97;;;13.40;59.40;;;;;;5027409;28;20634;-87
2023/03/13 03:34:05;;;;;;;5.67;2.47;;;13.40;59.20;;;;;;5046251;28;20467;-88
2023/03/13 03:36:32;;;;;;;13.00;3.10;;;13.20;59.70;;;;;;5020340;28;20478;-87
2023/03/13 03:39:00;;;;;;;6.80;2.00;;;13.20;59.80;;;;;;5072296;28;20461;-87
2023/03/13 03:41:28;;;;;;;3.93;1.93;;;13.30;60.00;;;;;;5051858;28;20550;-87
2023/03/13 03:43:56;;;;;;;5.90;2.33;;;13.40;60.40;;;;;;5029394;28;20483;-87
2023/03/13 03:46:27;;;;;;;12.77;2.77;;;13.20;60.30;;;;;;5039626;28;20961;-88
2023/03/13 03:48:56;;;;;;;9.33;2.60;;;13.10;61.40;;;;;;5044800;28;20502;-87
2023/03/13 03:51:24;;;;;;;9.00;3.00;;;13.00;62.00;;;;;;5043452;28;20469;-87
2023/03/13 03:53:51;;;;;;;7.60;2.13;;;12.80;62.40;;;;;;5041338;28;20467;-88
2023/03/13 03:56:18;;;;;;;6.47;2.60;;;12.90;62.60;;;;;;5034260;28;20536;-87
2023/03/13 03:58:50;;;;;;;5.40;1.67;;;12.90;62.30;;;;;;5029548;28;20448;-88
2023/03/13 04:01:36;;;;;;;5.80;2.53;;;13.10;61.90;;;;;;5030728;28;20479;-87
2023/03/13 04:04:04;;;;;;;8.50;2.63;;;13.00;62.20;;;;;;5060493;28;20483;-89
2023/03/13 04:06:33;;;;;;;8.53;2.33;;;13.00;61.70;;;;;;5023884;28;20917;-87
2023/03/13 04:09:01;;;;;;;3.73;2.33;;;13.00;61.60;;;;;;5063115;28;20448;-86
2023/03/13 04:11:30;;;;;;;11.07;1.90;;;12.90;62.40;;;;;;5046097;28;20461;-87
2023/03/13 04:13:57;;;;;;;5.53;2.20;;;12.80;62.70;;;;;;5046918;28;21115;-87
2023/03/13 04:16:25;;;;;;;8.43;2.63;;;12.70;62.70;;;;;;5028014;28;20459;-89
2023/03/13 04:18:53;;;;;;;4.60;1.90;;;12.90;62.30;;;;;;5042238;28;20436;-87
2023/03/13 04:21:21;;;;;;;5.57;1.97;;;13.10;62.20;;;;;;5041850;28;20489;-87
2023/03/13 04:24:12;;;;;;;8.03;3.37;;;13.10;62.10;;;;;;5048394;28;20496;-86
2023/03/13 04:26:41;;;;;;;5.90;3.00;;;13.20;61.90;;;;;;5041052;28;20463;-87
2023/03/13 04:29:08;;;;;;;9.33;2.13;;;13.30;61.10;;;;;;5053212;28;20452;-86
2023/03/13 04:31:59;;;;;;;9.47;2.77;;;13.40;60.70;;;;;;5050279;28;20994;-87
2023/03/13 04:35:05;;;;;;;5.03;2.43;;;13.50;60.80;;;;;;4942417;28;20840;-88
2023/03/13 04:37:44;;;;;;;9.77;2.40;;;13.50;61.40;;;;;;4914793;28;20592;-87
2023/03/13 04:40:31;;;;;;;8.30;2.13;;;13.40;61.80;;;;;;5029186;28;20456;-87
2023/03/13 04:43:09;;;;;;;4.00;2.37;;;13.30;62.30;;;;;;5035865;28;20521;-86
2023/03/13 04:45:55;;;;;;;2.07;1.80;;;13.30;62.50;;;;;;5054867;28;20452;-87
2023/03/13 04:48:36;;;;;;;4.03;2.10;;;13.40;62.40;;;;;;5058083;28;20502;-87
2023/03/13 04:51:32;;;;;;;3.77;1.97;;;13.50;62.30;;;;;;5045685;28;21823;-88
2023/03/13 04:54:13;;;;;;;9.40;2.70;;;13.30;62.70;;;;;;5026065;28;20467;-84
2023/03/13 04:56:51;;;;;;;6.93;2.90;;;13.20;63.50;;;;;;5037430;28;20520;-87
2023/03/13 04:59:42;;;;;;;6.57;2.70;;;13.30;63.70;;;;;;5044159;28;20464;-88
2023/03/13 05:02:40;;;;;;;6.97;1.53;;;13.10;64.60;;;;;;5034041;28;20585;-86
2023/03/13 05:05:26;;;;;;;3.47;1.90;;;13.00;65.60;;;;;;5040633;28;20508;-86
2023/03/13 05:08:12;;;;;;;2.80;2.27;;;13.10;65.60;;;;;;5056462;28;20553;-87
2023/03/13 05:11:05;;;;;;;7.30;2.87;;;13.00;66.20;;;;;;5020753;28;20962;-88
2023/03/13 05:13:49;;;;;;;3.00;2.27;;;13.10;66.40;;;;;;5043721;28;20475;-87
2023/03/13 05:16:35;;;;;;;4.03;2.03;;;13.10;66.70;;;;;;5026546;28;20443;-86
2023/03/13 05:19:20;;;;;;;14.10;7.33;;;13.00;66.70;;;;;;5027750;28;20437;-85
2023/03/13 05:22:02;;;;;;;9.03;5.53;;;13.10;66.70;;;;;;5055434;28;20445;-86
2023/03/13 05:24:46;;;;;;;13.60;2.80;;;13.40;65.80;;;;;;5035865;28;20553;-86
2023/03/13 05:27:32;;;;;;;6.27;2.63;;;13.40;65.80;;;;;;5051883;28;20518;-85
2023/03/13 05:30:27;;;;;;;5.83;2.90;;;13.30;66.30;;;;;;5039900;28;20550;-85
2023/03/13 05:33:12;;;;;;;12.00;5.37;;;13.40;66.00;;;;;;5051420;28;20590;-87
2023/03/13 05:36:01;;;;;;;16.73;8.67;;;13.20;67.10;;;;;;5039176;28;20463;-87
2023/03/13 05:38:47;;;;;;;10.40;4.60;;;13.20;67.60;;;;;;5044196;28;20853;-87
2023/03/13 05:41:21;;;;;;;5.77;1.80;;;13.30;67.80;;;;;;5040448;28;20455;-86
2023/03/13 05:44:08;;;;;;;4.03;1.90;;;12.90;69.10;;;;;;5058134;28;20614;-86
2023/03/13 05:46:55;;;;;;;8.00;3.67;;;12.70;70.60;;;;;;5045283;28;20872;-85
2023/03/13 05:49:44;;;;;;;3.10;2.30;;;12.80;70.20;;;;;;5026945;28;20594;-86
2023/03/13 05:52:28;;;;;;;5.13;2.47;;;13.00;70.40;;;;;;5038725;28;20459;-86
2023/03/13 05:55:16;;;;;;;3.70;1.70;;;13.10;69.90;;;;;;5027132;28;20598;-86
2023/03/13 05:58:01;;;;;;;9.20;3.30;;;12.60;71.20;;;;;;5044846;28;20446;-86
2023/03/13 06:00:48;;;;;;;2.67;2.30;;;12.80;71.30;;;;;;5042549;28;20545;-88
2023/03/13 06:03:37;;;;;;;3.83;1.90;;;12.80;71.50;;;;;;5040969;28;20459;-85
2023/03/13 06:06:04;;;;;;;5.90;2.40;;;12.70;72.40;;;;;;5025036;28;20453;-86
2023/03/13 06:08:37;;;;;;;6.10;4.00;;;12.90;71.80;;;;;;5042416;28;20533;-86
2023/03/13 06:11:04;;;;;;;4.27;2.13;;;12.90;72.20;;;;;;5039626;28;20460;-85
2023/03/13 06:13:32;;;;;;;4.03;1.80;;;12.90;72.40;;;;;;5059817;28;20484;-86
2023/03/13 06:16:06;;;;;;;3.63;2.63;;;12.80;72.40;;;;;;5027261;28;20452;-87
2023/03/13 06:18:40;;;;;;;5.70;2.13;;;12.70;73.20;;;;;;5054580;28;20560;-88
2023/03/13 06:21:07;;;;;;;19.33;6.53;;;12.70;73.80;;;;;;5024459;28;20982;-85
2023/03/13 06:23:35;;;;;;;6.30;3.50;;;12.80;73.40;;;;;;5033070;28;20484;-86
2023/03/13 06:26:02;;;;;;;3.40;2.27;;;13.00;72.30;;;;;;5045608;28;20433;-88
2023/03/13 06:28:29;;;;;;;6.03;2.50;;;12.90;73.10;;;;;;5042574;28;20446;-87
2023/03/13 06:31:01;;;;;;;4.70;2.20;;;13.00;73.20;;;;;;5035285;28;20531;-87
2023/03/13 06:33:28;;;;;;;18.83;7.33;;;13.00;73.00;;;;;;5040607;28;20471;-86
2023/03/13 06:35:57;;;;;;;10.73;4.80;;;13.00;73.60;;;;;;5075283;28;20456;-87
2023/03/13 06:38:24;;;;;;;7.57;4.20;;;13.20;73.30;;;;;;5030585;28;20471;-87
2023/03/13 06:40:51;;;;;;;3.93;3.40;;;13.30;72.70;;;;;;5072635;28;20486;-86
2023/03/13 06:43:19;;;;;;;5.13;3.57;;;13.50;71.90;;;;;;5046155;28;20472;-87
2023/03/13 06:45:46;;;;;;;6.47;5.30;;;13.60;71.30;;;;;;5033791;28;21001;-86
2023/03/13 06:48:14;;;;;;;8.07;4.43;;;13.50;71.80;;;;;;5031071;28;20542;-86
2023/03/13 06:50:42;;;;;;;4.27;3.50;;;13.60;71.80;;;;;;5063115;28;20455;-86
2023/03/13 06:53:15;;;;;;;6.73;3.80;;;13.40;72.50;;;;;;5033421;28;20503;-85
2023/03/13 06:55:42;;;;;;;5.13;1.77;;;13.30;73.30;;;;;;5042402;28;20558;-87
2023/03/13 06:58:09;;;;;;;5.23;2.50;;;13.30;73.00;;;;;;5050428;28;20526;-88
2023/03/13 07:00:38;;;;;;;2.60;2.27;;;13.30;73.40;;;;;;5039594;28;20444;-87
2023/03/13 07:03:05;;;;;;;4.03;2.70;;;13.50;72.70;;;;;;5051789;28;20469;-87
2023/03/13 07:05:32;;;;;;;3.50;1.90;;;13.60;72.10;;;;;;5046797;28;20475;-85
2023/03/13 07:07:59;;;;;;;2.53;1.97;;;13.60;72.50;;;;;;5041070;28;20459;-87
2023/03/13 07:10:28;;;;;;;3.67;2.30;;;13.50;72.90;;;;;;5026681;28;20470;-86
2023/03/13 07:12:55;;;;;;;4.70;2.50;;;13.80;72.30;;;;;;4982159;28;1100462;-86
2023/03/13 07:15:22;;;;;;;6.50;1.70;;;13.80;71.70;;;;;;5037017;28;20187;-86
2023/03/13 07:17:49;;;;;;;3.77;2.00;;;13.80;71.20;;;;;;5059163;28;20444;-86
2023/03/13 07:20:16;;;;;;;2.57;2.03;;;13.80;72.10;;;;;;5044592;28;20462;-86
2023/03/13 07:22:43;;;;;;;2.83;1.73;;;14.00;71.30;;;;;;5040220;28;20443;-86
2023/03/13 07:25:10;;;;;;;4.97;1.93;;;13.90;71.60;;;;;;5027776;28;20449;-90
2023/03/13 07:27:38;;;;;;;2.20;2.00;;;14.10;71.30;;;;;;5052956;28;20979;-88
2023/03/13 07:30:06;;;;;;;4.03;2.00;;;14.10;71.00;;;;;;5049894;28;20440;-88
2023/03/13 07:32:33;;;;;;;2.60;2.00;;;14.00;71.90;;;;;;5043977;28;21480;-88
2023/03/13 07:35:02;;;;;;;3.30;2.00;;;14.00;72.40;;;;;;5049529;28;21092;-89
2023/03/13 07:37:29;;;;;;;2.30;2.10;;;13.70;73.30;;;;;;5033035;28;20443;-89
2023/03/13 07:39:56;;;;;;;3.80;2.77;;;14.00;73.30;;;;;;5036222;28;20456;-88
2023/03/13 07:42:25;;;;;;;10.27;4.20;;;14.00;72.70;;;;;;5066187;28;20832;-86
2023/03/13 07:44:54;;;;;;;5.00;3.00;;;14.20;72.40;;;;;;5033249;28;20468;-87
2023/03/13 07:47:21;;;;;;;4.33;3.20;;;14.10;72.70;;;;;;5051171;28;20459;-87
2023/03/13 07:49:48;;;;;;;3.47;1.70;;;14.20;72.50;;;;;;5048369;28;20986;-88
2023/03/13 07:52:16;;;;;;;2.60;1.60;;;14.10;72.70;;;;;;5049509;28;20448;-88
2023/03/13 07:54:43;;;;;;;3.00;2.80;;;14.10;72.90;;;;;;5065721;28;20487;-87
2023/03/13 07:57:10;;;;;;;3.43;2.07;;;14.30;72.30;;;;;;5030248;28;20453;-87
2023/03/13 07:59:37;;;;;;;3.60;1.57;;;14.40;72.50;;;;;;5052220;28;20445;-87
2023/03/13 08:02:06;;;;;;;2.43;1.70;;;14.40;72.40;;;;;;5052748;28;20473;-87
2023/03/13 08:04:33;;;;;;;5.20;2.67;;;14.50;72.00;;;;;;5050840;28;20492;-87
2023/03/13 08:07:00;;;;;;;3.73;1.87;;;14.50;72.20;;;;;;5047834;28;20441;-87
2023/03/13 08:09:27;;;;;;;1.40;1.30;;;14.60;72.10;;;;;;5068382;28;20448;-87
2023/03/13 08:11:54;;;;;;;4.33;2.07;;;14.50;72.20;;;;;;5032718;28;20515;-85
2023/03/13 08:14:21;;;;;;;2.50;1.70;;;14.70;71.80;;;;;;5054811;28;20475;-86
2023/03/13 08:16:47;;;;;;;3.70;1.70;;;14.70;71.50;;;;;;5049400;28;20456;-85
2023/03/13 08:19:16;;;;;;;2.53;1.50;;;14.80;70.90;;;;;;5043083;28;20528;-87
2023/03/13 08:21:43;;;;;;;2.80;2.17;;;14.90;71.40;;;;;;5042191;28;20452;-86
2023/03/13 08:24:11;;;;;;;2.33;1.50;;;15.00;70.80;;;;;;5033566;28;20470;-89
2023/03/13 08:26:40;;;;;;;6.70;4.60;;;15.00;70.30;;;;;;5035009;28;20449;-88
2023/03/13 08:29:09;;;;;;;2.10;2.00;;;15.10;70.30;;;;;;5039245;28;20448;-88
2023/03/13 08:31:38;;;;;;;1.97;1.70;;;15.20;70.20;;;;;;5042265;28;20983;-87
2023/03/13 08:34:05;;;;;;;2.10;2.00;;;15.20;70.00;;;;;;5048726;28;20566;-88
2023/03/13 08:36:35;;;;;;;1.47;1.37;;;15.10;70.10;;;;;;5056425;28;20452;-87
2023/03/13 08:39:04;;;;;;;2.17;1.90;;;15.10;70.50;;;;;;5048775;28;20448;-89
2023/03/13 08:41:34;;;;;;;1.20;1.10;;;15.10;70.50;;;;;;5032483;28;20973;-85
2023/03/13 08:44:02;;;;;;;1.27;1.10;;;15.20;70.20;;;;;;5032120;28;20472;-86
2023/03/13 08:46:30;;;;;;;3.83;1.83;;;15.00;70.80;;;;;;5035359;28;20505;-89
2023/03/13 08:48:57;;;;;;;2.07;1.53;;;15.20;70.70;;;;;;5064585;28;20531;-88
2023/03/13 08:51:26;;;;;;;3.77;2.00;;;15.20;69.80;;;;;;5053916;28;20455;-86
2023/03/13 08:53:55;;;;;;;3.63;2.10;;;15.10;70.60;;;;;;5035830;28;20480;-87
2023/03/13 08:56:25;;;;;;;1.70;1.60;;;15.10;70.50;;;;;;5052463;28;20439;-88
2023/03/13 08:58:53;;;;;;;1.70;1.60;;;15.00;70.60;;;;;;5041747;28;20855;-88
2023/03/13 09:01:22;;;;;;;3.30;2.10;;;15.10;71.70;;;;;;5034621;28;20449;-88
2023/03/13 09:03:50;;;;;;;1.33;1.23;;;15.20;70.50;;;;;;5038303;28;20526;-87
2023/03/13 09:06:17;;;;;;;1.60;1.50;;;15.20;70.20;;;;;;5042591;28;20480;-88
2023/03/13 09:08:45;;;;;;;2.63;1.70;;;15.40;69.50;;;;;;5035744;28;20460;-88
2023/03/13 09:11:15;;;;;;;1.93;1.40;;;15.50;69.30;;;;;;5043204;28;20567;-87
2023/03/13 09:13:44;;;;;;;1.27;1.10;;;15.50;69.50;;;;;;5032903;28;20562;-88
2023/03/13 09:16:13;;;;;;;1.50;1.40;;;15.60;68.40;;;;;;5048764;28;20510;-89
2023/03/13 09:18:40;;;;;;;4.00;1.73;;;15.60;68.90;;;;;;5057709;28;20765;-88
2023/03/13 09:21:09;;;;;;;1.97;1.87;;;15.60;69.00;;;;;;5027535;28;20441;-89
2023/03/13 09:23:36;;;;;;;1.70;1.37;;;15.60;68.70;;;;;;5040348;28;20473;-88
2023/03/13 09:26:03;;;;;;;1.50;1.40;;;15.60;69.10;;;;;;5026321;28;20559;-89
2023/03/13 09:28:33;;;;;;;2.30;1.53;;;15.60;68.90;;;;;;5064871;28;20460;-91
2023/03/13 09:31:07;;;;;;;5.53;1.50;;;15.60;68.60;;;;;;5034242;28;20448;-86
2023/03/13 09:33:34;;;;;;;2.90;1.70;;;15.80;68.40;;;;;;5048531;28;21408;-86
2023/03/13 09:36:01;;;;;;;5.63;4.17;;;15.90;67.90;;;;;;5046947;28;21033;-90
2023/03/13 09:38:28;;;;;;;2.67;2.17;;;15.90;67.70;;;;;;5072132;28;20807;-88
2023/03/13 09:40:56;;;;;;;1.97;1.77;;;15.90;66.80;;;;;;5033811;28;20538;-88
2023/03/13 09:43:35;;;;;;;2.77;2.23;;;16.00;67.00;;;;;;5023577;28;21023;-87
2023/03/13 09:46:10;;;;;;;2.30;1.73;;;16.10;66.70;;;;;;5035708;28;20984;-88
2023/03/13 09:48:41;;;;;;;2.87;1.70;;;16.30;66.60;;;;;;5046134;28;20514;-88
2023/03/13 09:51:16;;;;;;;2.83;1.70;;;16.10;65.80;;;;;;5040083;28;20890;-89
2023/03/13 09:53:51;;;;;;;7.60;2.10;;;16.00;67.10;;;;;;5031665;28;21000;-89
2023/03/13 09:56:22;;;;;;;2.33;2.00;;;16.00;67.20;;;;;;5056871;28;20431;-88
2023/03/13 09:58:54;;;;;;;3.50;1.80;;;16.30;67.30;;;;;;5043181;28;20452;-90
2023/03/13 10:01:28;;;;;;;1.73;1.57;;;16.20;66.90;;;;;;5026209;28;20447;-91
2023/03/13 10:04:07;;;;;;;1.90;1.80;;;16.10;67.20;;;;;;5035852;28;20476;-90
2023/03/13 10:06:38;;;;;;;1.97;1.60;;;16.10;66.70;;;;;;5031164;28;20443;-91
2023/03/13 10:09:16;;;;;;;1.63;1.53;;;16.10;67.10;;;;;;5036696;28;20455;-90
2023/03/13 10:11:51;;;;;;;3.20;1.83;;;16.20;66.70;;;;;;5027284;28;20535;-89
2023/03/13 10:14:22;;;;;;;7.17;2.10;;;16.30;67.20;;;;;;5041278;28;20486;-88
2023/03/13 10:16:56;;;;;;;3.53;1.73;;;16.40;66.40;;;;;;5049292;28;20439;-90
2023/03/13 10:19:28;;;;;;;2.50;1.70;;;16.60;65.50;;;;;;5043683;28;20451;-89
2023/03/13 10:21:56;;;;;;;4.53;2.23;;;16.50;65.40;;;;;;5035084;28;20453;-88
2023/03/13 10:24:32;;;;;;;5.83;2.90;;;16.50;66.00;;;;;;5062314;28;20482;-89
2023/03/13 10:26:59;;;;;;;2.70;1.77;;;16.60;65.40;;;;;;5050246;28;20735;-89
2023/03/13 10:29:28;;;;;;;2.20;1.80;;;16.90;65.20;;;;;;5032575;28;20437;-89
2023/03/13 10:31:58;;;;;;;1.53;1.30;;;17.20;64.20;;;;;;5049054;28;20460;-89
2023/03/13 10:34:27;;;;;;;2.00;1.50;;;17.10;63.90;;;;;;5034195;28;20494;-89
2023/03/13 10:36:57;;;;;;;2.70;1.87;;;17.10;63.70;;;;;;5043552;28;20544;-89
2023/03/13 10:39:26;;;;;;;1.50;1.40;;;17.10;64.10;;;;;;5056529;28;20988;-89
2023/03/13 10:41:59;;;;;;;1.83;1.63;;;17.20;63.80;;;;;;5031688;28;20961;-89
2023/03/13 10:44:33;;;;;;;1.63;1.47;;;17.20;64.00;;;;;;5031953;28;20467;-87
2023/03/13 10:47:03;;;;;;;2.93;2.03;;;17.50;64.00;;;;;;5038430;28;20986;-88
2023/03/13 10:49:32;;;;;;;2.23;1.63;;;17.70;62.30;;;;;;5060652;28;20447;-88
2023/03/13 10:52:00;;;;;;;3.00;1.80;;;17.90;62.00;;;;;;5037594;28;20448;-88
2023/03/13 10:54:29;;;;;;;2.10;1.50;;;18.00;61.90;;;;;;5044590;28;20477;-87
2023/03/13 10:57:26;;;;;;;1.83;1.50;;;18.00;62.50;;;;;;5031829;28;20452;-89
2023/03/13 10:59:53;;;;;;;1.47;1.37;;;18.40;61.30;;;;;;5031477;28;20477;-87
2023/03/13 11:02:25;;;;;;;4.97;1.80;;;18.50;61.70;;;;;;5062409;28;20476;-89
2023/03/13 11:04:53;;;;;;;3.40;1.47;;;18.70;60.10;;;;;;5056273;28;20469;-87
2023/03/13 11:07:28;;;;;;;1.63;1.53;;;18.90;59.90;;;;;;5040304;28;20448;-88
2023/03/13 11:10:00;;;;;;;2.27;1.63;;;19.10;59.30;;;;;;5043388;28;20480;-88
2023/03/13 11:12:27;;;;;;;1.50;1.40;;;19.10;59.10;;;;;;5049017;28;20449;-88
2023/03/13 11:14:58;;;;;;;1.87;1.50;;;19.00;59.00;;;;;;5039597;28;20467;-86
2023/03/13 11:17:32;;;;;;;2.23;1.60;;;18.90;59.40;;;;;;5055305;28;20522;-89
2023/03/13 11:20:08;;;;;;;1.90;1.70;;;18.70;59.50;;;;;;5036568;28;20457;-87
2023/03/13 11:22:50;;;;;;;2.00;1.80;;;18.70;58.60;;;;;;5038551;28;20455;-87
2023/03/13 11:25:30;;;;;;;3.43;1.83;;;18.60;59.20;;;;;;5037368;28;20544;-88
2023/03/13 11:28:14;;;;;;;1.73;1.47;;;18.50;59.20;;;;;;5055955;28;20563;-88
2023/03/13 11:31:00;;;;;;;5.73;2.03;;;18.60;59.40;;;;;;5047286;28;20478;-87
2023/03/13 11:33:38;;;;;;;2.30;2.10;;;18.80;59.10;;;;;;5032621;28;20495;-88
2023/03/13 11:36:14;;;;;;;1.77;1.60;;;18.90;58.50;;;;;;5038982;28;20439;-88
2023/03/13 11:38:44;;;;;;;2.90;2.00;;;18.90;57.70;;;;;;5045630;28;20467;-88
2023/03/13 11:41:32;;;;;;;2.57;1.57;;;19.20;57.90;;;;;;5061694;28;20831;-88
2023/03/13 11:44:11;;;;;;;1.70;1.60;;;19.60;58.90;;;;;;5032988;28;20472;-89
2023/03/13 11:46:48;;;;;;;1.97;1.80;;;19.70;57.20;;;;;;5049485;28;20460;-88
2023/03/13 11:49:46;;;;;;;2.63;1.97;;;19.70;56.10;;;;;;5030546;28;20444;-89
2023/03/13 11:52:24;;;;;;;48.27;22.53;;;20.10;55.90;;;;;;5034397;28;20438;-91
2023/03/13 11:55:12;;;;;;;11.57;5.47;;;20.30;55.50;;;;;;5024307;28;20472;-87
2023/03/13 11:57:47;;;;;;;3.20;2.10;;;20.30;55.00;;;;;;5038310;28;20458;-88
2023/03/13 12:00:22;;;;;;;3.23;2.00;;;20.50;55.10;;;;;;5050403;28;21076;-90
2023/03/13 12:02:55;;;;;;;2.50;1.83;;;20.50;54.40;;;;;;5039608;28;20456;-89
2023/03/13 12:05:24;;;;;;;3.60;2.10;;;20.50;53.90;;;;;;5043265;28;20455;-89
2023/03/13 12:07:57;;;;;;;2.90;2.63;;;20.70;54.00;;;;;;5039784;28;20445;-88
2023/03/13 12:10:28;;;;;;;3.00;2.30;;;20.90;53.90;;;;;;5027458;28;20448;-88
2023/03/13 12:13:02;;;;;;;3.10;2.37;;;20.90;53.10;;;;;;5043347;28;20453;-88
2023/03/13 12:15:34;;;;;;;3.33;2.43;;;20.70;53.30;;;;;;5022660;28;21055;-88
2023/03/13 12:18:04;;;;;;;2.53;1.53;;;20.70;53.00;;;;;;5034273;28;20618;-89
2023/03/13 12:20:40;;;;;;;2.23;1.90;;;20.70;52.80;;;;;;5039420;28;20444;-88
2023/03/13 12:23:18;;;;;;;2.60;2.30;;;20.70;53.80;;;;;;5032058;28;20475;-89
2023/03/13 12:25:51;;;;;;;4.40;1.93;;;21.10;53.40;;;;;;5045219;28;20454;-88
2023/03/13 12:28:36;;;;;;;1.73;1.50;;;21.60;52.90;;;;;;5029320;28;20522;-87
2023/03/13 12:31:11;;;;;;;1.83;1.70;;;21.70;51.00;;;;;;5040829;28;20448;-89
2023/03/13 12:33:42;;;;;;;3.97;1.80;;;21.60;50.80;;;;;;5037312;28;20469;-90
2023/03/13 12:36:14;;;;;;;2.87;1.70;;;21.40;51.40;;;;;;5045575;28;21032;-89
2023/03/13 12:38:48;;;;;;;2.60;1.47;;;21.40;51.80;;;;;;5072398;28;20450;-89
2023/03/13 12:41:20;;;;;;;2.50;1.70;;;21.30;51.80;;;;;;5041864;28;20490;-88
2023/03/13 12:43:49;;;;;;;2.30;1.70;;;21.40;52.60;;;;;;5026125;28;20574;-89
2023/03/13 12:46:45;;;;;;;1.60;1.50;;;21.60;51.80;;;;;;5030706;28;20476;-87
2023/03/13 12:49:40;;;;;;;2.67;1.87;;;21.60;51.10;;;;;;5061810;28;20451;-89
2023/03/13 12:52:42;;;;;;;1.93;1.50;;;21.60;51.30;;;;;;5062333;28;20560;-90
2023/03/13 12:55:37;;;;;;;2.60;1.80;;;21.50;52.40;;;;;;5035637;28;20472;-90
2023/03/13 12:58:23;;;;;;;3.60;1.60;;;21.60;51.90;;;;;;5032681;28;20564;-93
2023/03/13 13:00:52;;;;;;;3.10;1.60;;;21.40;51.50;;;;;;5043029;28;20943;-91
2023/03/13 13:03:30;;;;;;;2.07;1.60;;;21.20;52.80;;;;;;5029476;28;20482;-91
2023/03/13 13:06:07;;;;;;;2.80;2.03;;;21.20;51.90;;;;;;5040108;28;20475;-90
2023/03/13 13:08:41;;;;;;;2.27;1.93;;;21.10;52.00;;;;;;5041733;28;20972;-90
2023/03/13 13:11:47;;;;;;;2.60;2.07;;;20.90;52.00;;;;;;5031502;28;20441;-90